Time;durP1;ratioP1;P1;durP2;ratioP2;P2;SDS_P1;SDS_P2;PMS_P1;PMS_P2;Temp;Humidity;BMP_temperature;BMP_pressure;BME280_temperature;BME280_humidity;BME280_pressure;Samples;Min_cycle;Max_cycle;Signal;HPM_P1;HPM_P2
2024/03/31 00:00:33;;;;;;;17.65;3.10;;;;;;;11.09;100.00;91488.69;2091017;28;20389;-85
2024/03/31 00:01:34;;;;;;;17.25;3.70;;;;;;;10.71;100.00;91488.69;2087545;28;20033;-82
2024/03/31 00:02:36;;;;;;;20.55;4.05;;;;;;;10.80;100.00;91483.28;2092588;28;20137;-80
2024/03/31 00:03:39;;;;;;;16.40;3.15;;;;;;;10.81;100.00;91490.84;2093354;28;20055;-85
2024/03/31 00:04:40;;;;;;;13.48;3.10;;;;;;;11.07;100.00;91485.75;2091049;28;20461;-83
2024/03/31 00:05:42;;;;;;;13.43;2.85;;;;;;;10.98;100.00;91483.16;2079598;28;20519;-81
2024/03/31 00:06:44;;;;;;;19.50;3.70;;;;;;;10.98;100.00;91482.41;2090448;28;20024;-84
2024/03/31 00:07:45;;;;;;;13.13;3.45;;;;;;;10.70;100.00;91489.88;2084176;28;20017;-81
2024/03/31 00:08:46;;;;;;;17.05;3.42;;;;;;;10.69;100.00;91486.47;2079211;28;20108;-82
2024/03/31 00:09:48;;;;;;;14.50;3.17;;;;;;;10.57;100.00;91476.75;2091197;28;20040;-80
2024/03/31 00:11:00;;;;;;;18.88;3.35;;;;;;;10.81;100.00;91484.78;2082854;28;20033;-83
2024/03/31 00:12:01;;;;;;;18.33;3.25;;;;;;;10.96;100.00;91479.44;2095596;28;20028;-83
2024/03/31 00:13:02;;;;;;;17.52;3.55;;;;;;;10.99;100.00;91473.94;2095214;28;20658;-82
2024/03/31 00:14:03;;;;;;;23.88;4.22;;;;;;;11.01;100.00;91471.53;2091934;28;20024;-84
2024/03/31 00:15:04;;;;;;;22.00;3.88;;;;;;;10.82;100.00;91467.53;2086990;28;20028;-83
2024/03/31 00:16:05;;;;;;;19.58;3.90;;;;;;;10.33;100.00;91469.47;2087264;28;20440;-81
2024/03/31 00:17:07;;;;;;;17.15;3.42;;;;;;;10.55;100.00;91479.88;2087520;28;20697;-86
2024/03/31 00:18:08;;;;;;;14.88;3.53;;;;;;;10.73;100.00;91462.25;2084461;28;20269;-81
2024/03/31 00:19:09;;;;;;;18.40;3.85;;;;;;;10.21;100.00;91461.66;2079067;28;20382;-83
2024/03/31 00:20:10;;;;;;;19.73;4.00;;;;;;;10.74;100.00;91453.78;2087057;28;20033;-82
2024/03/31 00:21:11;;;;;;;17.20;3.90;;;;;;;10.98;100.00;91459.09;2095934;28;20385;-81
2024/03/31 00:22:12;;;;;;;16.05;3.25;;;;;;;10.99;100.00;91452.53;2087165;28;20033;-83
2024/03/31 00:23:14;;;;;;;15.50;3.63;;;;;;;10.67;100.00;91448.03;2095558;28;20032;-82
2024/03/31 00:24:15;;;;;;;16.02;3.45;;;;;;;10.62;100.00;91446.00;2083248;28;20067;-83
2024/03/31 00:25:16;;;;;;;21.13;3.88;;;;;;;10.57;100.00;91458.06;2079351;28;20022;-81
2024/03/31 00:26:17;;;;;;;16.98;3.25;;;;;;;10.53;100.00;91458.22;2089623;28;20567;-82
2024/03/31 00:27:18;;;;;;;22.45;3.85;;;;;;;10.34;100.00;91454.19;2094973;28;20047;-81
2024/03/31 00:28:19;;;;;;;15.60;3.30;;;;;;;10.09;100.00;91453.41;2097212;28;20110;-83
2024/03/31 00:29:21;;;;;;;17.02;3.70;;;;;;;10.30;100.00;91448.28;2092331;28;20401;-81
2024/03/31 00:30:22;;;;;;;15.63;3.03;;;;;;;10.30;100.00;91446.34;2090089;28;20029;-84
2024/03/31 00:31:24;;;;;;;15.90;3.20;;;;;;;10.46;100.00;91436.47;2091865;28;20409;-83
2024/03/31 00:32:25;;;;;;;16.60;3.90;;;;;;;10.40;100.00;91430.25;2097447;28;20021;-80
2024/03/31 00:33:26;;;;;;;20.10;3.47;;;;;;;10.35;100.00;91436.97;2092973;28;20021;-82
2024/03/31 00:34:27;;;;;;;18.48;3.08;;;;;;;10.00;100.00;91428.69;2086219;28;20039;-83
2024/03/31 00:35:28;;;;;;;17.90;3.78;;;;;;;10.10;100.00;91432.81;2080644;28;20469;-83
2024/03/31 00:36:29;;;;;;;18.05;3.65;;;;;;;10.06;100.00;91416.94;2089369;28;20350;-83
2024/03/31 00:37:38;;;;;;;17.80;3.30;;;;;;;9.98;100.00;91410.47;2105133;28;20520;-83
2024/03/31 00:38:39;;;;;;;16.50;3.72;;;;;;;10.00;100.00;91399.31;2097549;28;20021;-80
2024/03/31 00:39:41;;;;;;;17.77;4.53;;;;;;;9.94;100.00;91401.16;2097586;28;20039;-81
2024/03/31 00:40:41;;;;;;;14.32;3.33;;;;;;;9.91;100.00;91389.44;2097729;28;20100;-84
2024/03/31 00:41:42;;;;;;;17.98;3.90;;;;;;;9.86;100.00;91384.00;2095416;28;20029;-82
2024/03/31 00:42:43;;;;;;;20.08;3.85;;;;;;;9.42;100.00;91371.16;2089525;28;20044;-83
2024/03/31 00:43:44;;;;;;;20.98;3.28;;;;;;;9.51;100.00;91365.78;2089405;28;20017;-79
2024/03/31 00:44:46;;;;;;;11.88;3.13;;;;;;;9.56;100.00;91360.56;2089440;28;20127;-86
2024/03/31 00:45:47;;;;;;;18.85;4.32;;;;;;;9.37;100.00;91343.19;2091679;28;20399;-83
2024/03/31 00:46:48;;;;;;;15.48;3.05;;;;;;;9.57;100.00;91342.66;2097611;28;20028;-82
2024/03/31 00:47:50;;;;;;;18.65;3.35;;;;;;;9.58;100.00;91331.53;2097734;28;20032;-80
2024/03/31 00:48:51;;;;;;;15.55;3.30;;;;;;;9.56;100.00;91319.81;2090339;28;20466;-81
2024/03/31 00:49:52;;;;;;;17.05;3.15;;;;;;;9.39;100.00;91322.13;2081027;28;20043;-81
2024/03/31 00:50:53;;;;;;;14.43;3.03;;;;;;;9.57;100.00;91321.31;2081155;28;20032;-82
2024/03/31 00:51:54;;;;;;;19.02;3.28;;;;;;;9.52;100.00;91335.97;2084850;28;20457;-82
2024/03/31 00:52:55;;;;;;;11.98;3.10;;;;;;;9.34;100.00;91336.06;2089473;28;20020;-83
2024/03/31 00:53:56;;;;;;;15.07;2.67;;;;;;;9.53;100.00;91348.16;2097451;28;20020;-81
2024/03/31 00:54:57;;;;;;;14.20;2.70;;;;;;;9.49;100.00;91350.25;2093785;28;20082;-81
2024/03/31 00:55:58;;;;;;;19.67;3.30;;;;;;;9.63;100.00;91356.84;2097270;28;20523;-82
2024/03/31 00:56:59;;;;;;;18.65;3.22;;;;;;;9.85;100.00;91361.91;2089253;28;20037;-81
2024/03/31 00:58:05;;;;;;;19.50;3.00;;;;;;;9.96;100.00;91377.41;2096641;28;20048;-82
2024/03/31 00:59:06;;;;;;;12.48;2.80;;;;;;;9.84;100.00;91384.47;2089030;28;20478;-81
2024/03/31 01:00:08;;;;;;;9.27;2.40;;;;;;;9.68;100.00;91392.81;2088413;28;20049;-81
2024/03/31 01:01:11;;;;;;;13.68;2.40;;;;;;;9.67;100.00;91394.03;2091721;28;20077;-82
2024/03/31 01:02:12;;;;;;;16.15;2.80;;;;;;;9.56;100.00;91392.56;2087219;28;20036;-82
2024/03/31 01:03:13;;;;;;;12.50;2.65;;;;;;;9.62;100.00;91390.03;2086215;28;20031;-82
2024/03/31 01:05:03;;;;;;;19.60;3.22;;;;;;;9.47;100.00;91389.94;2086215;28;20116;-82
2024/03/31 01:08:02;;;;;;;23.02;3.17;;;;;;;9.69;100.00;91388.97;2089507;28;20464;-82
2024/03/31 01:09:03;;;;;;;14.23;2.65;;;;;;;9.61;100.00;91388.53;2090415;28;20401;-84
2024/03/31 01:10:48;;;;;;;15.63;3.28;;;;;;;9.72;100.00;91388.06;2098147;28;20095;-82
2024/03/31 01:11:51;;;;;;;12.32;2.97;;;;;;;9.47;100.00;91389.94;2089141;28;20036;-83
2024/03/31 01:12:52;;;;;;;18.05;3.42;;;;;;;9.56;100.00;91389.16;2081301;28;20100;-82
2024/03/31 01:13:55;;;;;;;14.82;2.47;;;;;;;9.69;100.00;91387.03;2072751;28;20026;-82
2024/03/31 01:14:57;;;;;;;19.65;3.40;;;;;;;9.65;100.00;91394.47;2081210;28;20025;-82
2024/03/31 01:15:59;;;;;;;13.55;3.15;;;;;;;9.58;100.00;91392.13;2089501;28;20021;-81
2024/03/31 01:17:00;;;;;;;17.00;3.65;;;;;;;9.64;100.00;91390.31;2089780;28;20039;-81
2024/03/31 01:18:10;;;;;;;17.10;3.65;;;;;;;9.66;100.00;91390.63;2097421;28;20024;-83
2024/03/31 01:19:38;;;;;;;10.90;3.05;;;;;;;9.67;100.00;91386.03;2096161;28;20031;-82
2024/03/31 01:20:40;;;;;;;12.68;3.25;;;;;;;9.51;100.00;91379.84;2055635;28;20086;-82
2024/03/31 01:21:41;;;;;;;14.85;2.92;;;;;;;9.57;100.00;91378.06;1975472;28;24420;-80
2024/03/31 01:22:44;;;;;;;16.20;3.13;;;;;;;9.61;100.00;91380.53;2005512;28;20105;-83
2024/03/31 01:23:50;;;;;;;10.85;2.72;;;;;;;9.69;100.00;91386.28;1999472;28;20040;-81
2024/03/31 01:24:51;;;;;;;14.40;3.05;;;;;;;9.65;100.00;91380.38;2002300;28;23872;-83
2024/03/31 01:25:52;;;;;;;17.55;3.22;;;;;;;9.53;100.00;91374.81;2000333;28;21600;-82
2024/03/31 01:27:44;;;;;;;13.45;3.22;;;;;;;9.45;100.00;91371.00;2012225;28;20047;-82
2024/03/31 01:28:45;;;;;;;14.70;2.50;;;;;;;9.33;100.00;91356.66;2028442;28;20033;-85
2024/03/31 01:29:46;;;;;;;14.80;2.75;;;;;;;9.41;100.00;91356.34;2041484;28;20043;-80
2024/03/31 01:30:47;;;;;;;12.07;3.05;;;;;;;9.44;100.00;91352.75;2042384;28;20025;-80
2024/03/31 01:31:48;;;;;;;14.65;2.92;;;;;;;9.24;100.00;91348.69;2080613;28;20473;-82
2024/03/31 01:32:49;;;;;;;13.63;2.45;;;;;;;9.17;100.00;91353.59;2089273;28;20021;-81
2024/03/31 01:33:50;;;;;;;10.65;2.75;;;;;;;9.06;100.00;91360.16;2080689;28;20040;-85
2024/03/31 01:34:51;;;;;;;12.48;3.00;;;;;;;9.13;100.00;91355.69;2054793;28;20510;-83
2024/03/31 01:35:52;;;;;;;11.18;2.50;;;;;;;9.14;100.00;91352.59;2058522;28;20031;-83
2024/03/31 01:36:53;;;;;;;9.40;3.28;;;;;;;9.31;100.00;91355.66;2079181;28;20155;-85
2024/03/31 01:37:54;;;;;;;10.73;3.28;;;;;;;9.06;100.00;91362.09;1980008;28;20034;-82
2024/03/31 01:38:55;;;;;;;14.25;3.50;;;;;;;9.04;100.00;91365.22;1990098;28;20025;-82
2024/03/31 01:39:58;;;;;;;12.30;3.15;;;;;;;9.08;100.00;91363.09;2007930;28;20452;-81
2024/03/31 01:42:57;;;;;;;10.77;3.13;;;;;;;8.77;100.00;91367.91;2030994;28;23019;-84
2024/03/31 01:43:58;;;;;;;11.95;3.03;;;;;;;8.66;100.00;91357.72;2039337;28;20406;-79
2024/03/31 01:44:59;;;;;;;12.30;4.53;;;;;;;8.69;100.00;91348.09;2043622;28;20033;-82
2024/03/31 01:46:00;;;;;;;17.23;3.03;;;;;;;8.78;100.00;91351.50;2043757;28;20111;-84
2024/03/31 01:47:01;;;;;;;10.52;3.17;;;;;;;8.76;100.00;91351.19;2045122;28;20048;-85
2024/03/31 01:48:02;;;;;;;12.35;3.10;;;;;;;8.74;100.00;91366.16;2060782;28;20528;-82
2024/03/31 01:49:03;;;;;;;13.82;3.13;;;;;;;8.65;100.00;91371.47;2080620;28;20110;-80
2024/03/31 01:50:05;;;;;;;9.93;3.05;;;;;;;8.51;100.00;91364.84;2087961;28;20481;-85
2024/03/31 01:51:06;;;;;;;11.48;3.17;;;;;;;8.57;100.00;91357.75;2088211;28;20032;-84
2024/03/31 01:52:07;;;;;;;11.68;3.17;;;;;;;8.54;100.00;91356.69;2096857;28;20016;-85
2024/03/31 01:53:07;;;;;;;12.07;3.03;;;;;;;8.31;100.00;91359.94;2097091;28;20066;-84
2024/03/31 01:54:08;;;;;;;12.40;2.47;;;;;;;8.37;100.00;91350.19;2080800;28;20216;-81
2024/03/31 01:55:09;;;;;;;11.98;2.85;;;;;;;8.39;100.00;91353.19;2080711;28;20058;-84
2024/03/31 01:56:10;;;;;;;9.23;2.42;;;;;;;8.41;100.00;91344.72;2080549;28;20059;-82
2024/03/31 01:57:11;;;;;;;9.85;3.17;;;;;;;8.69;100.00;91348.09;2080794;28;20025;-83
2024/03/31 01:58:12;;;;;;;12.80;2.70;;;;;;;8.47;100.00;91343.72;2072456;28;20052;-83
2024/03/31 01:59:13;;;;;;;9.55;2.80;;;;;;;8.40;100.00;91349.31;2081128;28;20103;-81
2024/03/31 02:00:14;;;;;;;10.85;2.60;;;;;;;8.29;100.00;91349.72;2088849;28;20032;-83
2024/03/31 02:01:15;;;;;;;13.88;2.40;;;;;;;8.13;100.00;91346.66;2088792;28;20059;-81
2024/03/31 02:02:16;;;;;;;7.80;2.00;;;;;;;8.19;100.00;91350.19;2088947;28;20492;-80
2024/03/31 02:03:18;;;;;;;17.27;2.72;;;;;;;8.29;100.00;91351.66;2096141;28;20030;-83
2024/03/31 02:04:19;;;;;;;12.10;2.50;;;;;;;8.34;100.00;91356.41;2089844;28;20032;-81
2024/03/31 02:07:17;;;;;;;7.88;2.25;;;;;;;8.22;100.00;91344.72;2093336;28;20021;-81
2024/03/31 02:08:18;;;;;;;9.27;2.50;;;;;;;8.24;100.00;91341.59;2093817;28;20524;-82
2024/03/31 02:12:40;;;;;;;12.43;2.53;;;;;;;8.30;100.00;91353.16;2089934;28;20115;-84
2024/03/31 02:13:41;;;;;;;10.48;2.67;;;;;;;8.21;100.00;91342.47;2095408;28;20029;-83
2024/03/31 02:14:42;;;;;;;12.13;2.65;;;;;;;8.03;100.00;91333.34;2096005;28;20028;-81
2024/03/31 02:15:45;;;;;;;10.90;2.50;;;;;;;8.13;100.00;91333.34;2090631;28;20052;-84
2024/03/31 02:16:46;;;;;;;10.50;2.60;;;;;;;7.98;100.00;91325.91;2086959;28;20468;-81
2024/03/31 02:17:47;;;;;;;8.98;2.88;;;;;;;7.89;100.00;91325.19;2088049;28;20052;-83
2024/03/31 02:21:41;;;;;;;9.68;2.60;;;;;;;7.75;100.00;91313.19;2089205;28;20478;-82
2024/03/31 02:22:43;;;;;;;7.72;2.10;;;;;;;7.74;100.00;91317.03;2093083;28;20024;-84
2024/03/31 02:24:31;;;;;;;9.38;2.40;;;;;;;7.82;100.00;91313.66;2080364;28;20033;-83
2024/03/31 02:27:32;;;;;;;;;;;;;;;5.88;100.00;91309.78;2139499;27;20816;-82
2024/03/31 02:28:34;;;;;;;12.50;2.35;;;;;;;5.94;100.00;91311.50;2138519;27;20394;-85
2024/03/31 02:29:35;;;;;;;6.65;2.42;;;;;;;5.91;100.00;91306.28;2121356;27;20491;-81
2024/03/31 02:30:36;;;;;;;9.23;1.98;;;;;;;5.94;100.00;91303.53;2126049;27;20026;-83
2024/03/31 02:32:24;;;;;;;7.80;1.98;;;;;;;5.93;100.00;91314.59;2121123;28;20027;-82
2024/03/31 02:33:25;;;;;;;12.75;2.72;;;;;;;5.89;100.00;91312.03;2119315;27;20605;-86
2024/03/31 02:34:25;;;;;;;9.00;3.08;;;;;;;5.93;100.00;91311.94;2116541;28;20020;-85
2024/03/31 02:35:26;;;;;;;9.30;2.22;;;;;;;5.79;100.00;91316.50;2121074;28;20063;-82
2024/03/31 02:36:27;;;;;;;8.70;2.42;;;;;;;5.95;100.00;91306.94;2112606;28;20027;-83
2024/03/31 02:37:28;;;;;;;7.32;2.20;;;;;;;5.76;100.00;91312.06;2107004;28;20058;-83
2024/03/31 02:38:29;;;;;;;13.25;2.58;;;;;;;5.81;100.00;91305.47;2102229;28;20124;-81
2024/03/31 02:39:30;;;;;;;6.80;1.95;;;;;;;5.77;100.00;91312.81;2094698;28;20017;-82
2024/03/31 02:40:31;;;;;;;9.07;2.30;;;;;;;5.84;100.00;91306.50;2107265;28;20521;-84
2024/03/31 02:41:32;;;;;;;9.50;2.60;;;;;;;5.85;100.00;91308.75;2124051;27;20031;-83
2024/03/31 02:42:33;;;;;;;9.00;2.72;;;;;;;5.80;100.00;91301.34;2107372;28;20081;-83
2024/03/31 02:44:20;;;;;;;8.80;2.30;;;;;;;5.75;100.00;91307.94;2098445;28;20031;-83
2024/03/31 02:47:19;;;;;;;6.63;1.80;;;;;;;5.60;100.00;91298.22;2121955;27;20570;-84
2024/03/31 02:48:20;;;;;;;9.60;1.98;;;;;;;5.59;100.00;91296.75;2117809;27;20069;-81
2024/03/31 02:49:21;;;;;;;6.10;2.03;;;;;;;5.55;100.00;91299.50;2112428;28;20023;-84
2024/03/31 02:50:22;;;;;;;5.90;1.58;;;;;;;5.45;100.00;91305.91;2112693;28;20096;-81
2024/03/31 02:51:23;;;;;;;6.63;2.20;;;;;;;5.45;100.00;91314.59;2112730;28;20035;-82
2024/03/31 02:52:24;;;;;;;9.98;2.03;;;;;;;5.47;100.00;91309.59;2107748;27;20465;-82
2024/03/31 02:53:25;;;;;;;9.30;2.10;;;;;;;5.39;100.00;91313.63;2129545;27;20110;-81
2024/03/31 02:54:26;;;;;;;7.38;2.03;;;;;;;5.37;100.00;91307.28;2120812;28;20096;-84
2024/03/31 02:55:27;;;;;;;7.25;2.00;;;;;;;5.42;100.00;91304.09;2097586;28;20028;-83
2024/03/31 02:56:29;;;;;;;4.72;1.80;;;;;;;5.50;100.00;91302.69;2095768;28;20052;-83
2024/03/31 02:57:52;;;;;;;8.95;2.10;;;;;;;5.54;100.00;91303.31;2104115;28;20074;-83
2024/03/31 02:58:53;;;;;;;7.47;2.00;;;;;;;5.58;100.00;91303.97;2132897;27;20022;-83
2024/03/31 03:00:34;;;;;;;6.57;1.75;;;;;;;5.55;100.00;91302.88;2129590;27;20030;-80
2024/03/31 03:02:21;;;;;;;8.52;2.50;;;;;;;5.54;100.00;91308.63;2114243;28;20023;-85
2024/03/31 03:05:19;;;;;;;5.32;1.67;;;;;;;5.48;100.00;91312.97;2115297;27;20024;-83
2024/03/31 03:06:21;;;;;;;6.22;1.80;;;;;;;5.49;100.00;91309.91;2116088;28;20016;-80
2024/03/31 03:07:22;;;;;;;7.35;2.15;;;;;;;5.50;100.00;91318.59;2115134;27;20085;-83
2024/03/31 03:08:23;;;;;;;11.30;2.15;;;;;;;5.52;100.00;91310.94;2108539;28;20032;-83
2024/03/31 03:09:28;;;;;;;4.78;1.90;;;;;;;5.54;100.00;91309.38;2106906;28;20474;-81
2024/03/31 03:10:57;;;;;;;8.57;1.70;;;;;;;5.37;100.00;91309.94;2118595;27;20081;-82
2024/03/31 03:11:58;;;;;;;7.72;2.08;;;;;;;5.37;100.00;91309.94;2104811;28;20032;-81
2024/03/31 03:12:59;;;;;;;6.25;1.95;;;;;;;5.32;100.00;91302.53;2111729;28;20119;-82
2024/03/31 03:14:00;;;;;;;7.38;1.50;;;;;;;5.13;100.00;91310.25;2120852;28;20027;-79
2024/03/31 03:15:01;;;;;;;8.40;1.88;;;;;;;4.98;100.00;91311.88;2116309;28;20026;-84
2024/03/31 03:16:02;;;;;;;6.68;2.00;;;;;;;5.03;100.00;91303.41;2116893;27;20015;-84
2024/03/31 03:17:38;;;;;;;7.55;2.58;;;;;;;5.20;100.00;91315.34;2120327;27;20584;-85
2024/03/31 03:18:39;;;;;;;15.43;2.40;;;;;;;5.21;100.00;91308.16;2118537;27;20022;-82
2024/03/31 03:20:26;;;;;;;6.93;2.15;;;;;;;5.17;100.00;91304.88;2122569;27;20109;-83
2024/03/31 03:21:28;;;;;;;5.03;1.70;;;;;;;5.11;100.00;91306.56;2118720;28;20022;-84
2024/03/31 03:22:29;;;;;;;8.45;2.08;;;;;;;5.06;100.00;91307.84;2101570;28;20031;-84
2024/03/31 03:23:32;;;;;;;9.05;2.20;;;;;;;5.09;100.00;91303.59;2110567;28;20102;-82
2024/03/31 03:25:17;;;;;;;7.22;2.00;;;;;;;4.98;100.00;91314.53;2129743;27;20015;-83
2024/03/31 03:26:18;;;;;;;9.50;2.53;;;;;;;5.08;100.00;91308.16;2116876;27;20028;-82
2024/03/31 03:27:18;;;;;;;6.78;1.85;;;;;;;5.16;100.00;91306.03;2129062;27;20043;-81
2024/03/31 03:28:19;;;;;;;8.68;2.25;;;;;;;5.28;100.00;91306.03;2110792;28;20039;-82
2024/03/31 03:30:16;;;;;;;10.00;2.20;;;;;;;5.26;100.00;91318.94;2103765;28;20031;-84
2024/03/31 03:31:42;;;;;;;6.65;1.92;;;;;;;4.97;100.00;91319.06;2111551;28;20091;-83
2024/03/31 03:34:40;;;;;;;8.50;2.22;;;;;;;4.99;100.00;91327.31;2120581;27;20023;-84
2024/03/31 03:38:10;;;;;;;7.95;2.83;;;;;;;5.19;100.00;91329.03;2123536;27;20023;-84
2024/03/31 03:41:09;;;;;;;8.20;2.00;;;;;;;5.15;100.00;91329.13;2110894;27;20438;-81
2024/03/31 03:42:10;;;;;;;10.95;2.03;;;;;;;5.21;100.00;91327.41;2113108;27;20112;-85
2024/03/31 03:43:13;;;;;;;17.00;2.17;;;;;;;5.17;100.00;91326.03;2102678;28;20028;-81
2024/03/31 03:44:14;;;;;;;6.60;1.98;;;;;;;5.07;100.00;91337.72;2109408;28;20401;-85
2024/03/31 03:45:15;;;;;;;7.43;2.17;;;;;;;5.04;100.00;91334.72;2103446;28;20024;-84
2024/03/31 03:46:19;;;;;;;11.55;2.40;;;;;;;4.98;100.00;91328.50;2106721;28;20035;-84
2024/03/31 03:47:21;;;;;;;7.07;2.17;;;;;;;5.00;100.00;91331.47;2098747;28;20374;-83
2024/03/31 03:48:22;;;;;;;10.40;2.10;;;;;;;5.00;100.00;91326.19;2110531;28;20062;-83
2024/03/31 03:49:23;;;;;;;9.20;2.45;;;;;;;5.02;100.00;91325.75;2105914;28;20482;-84
2024/03/31 03:50:24;;;;;;;10.13;2.10;;;;;;;4.98;100.00;91328.50;2098239;28;20077;-81
2024/03/31 03:51:25;;;;;;;9.63;2.55;;;;;;;5.04;100.00;91331.34;2110279;28;20031;-83
2024/03/31 03:52:27;;;;;;;9.10;2.70;;;;;;;4.93;100.00;91334.31;2106831;28;20560;-84
2024/03/31 03:53:28;;;;;;;11.43;2.10;;;;;;;5.01;100.00;91332.22;2123370;27;20034;-85
2024/03/31 03:54:29;;;;;;;8.95;2.28;;;;;;;5.04;100.00;91340.03;2129191;27;20057;-84
2024/03/31 03:55:30;;;;;;;5.82;1.70;;;;;;;5.12;100.00;91339.81;2106202;28;20559;-83
2024/03/31 03:56:31;;;;;;;7.60;2.15;;;;;;;5.12;100.00;91340.56;2111880;27;20027;-83
2024/03/31 03:57:32;;;;;;;8.32;2.22;;;;;;;5.05;100.00;91346.09;2111996;28;20032;-81
2024/03/31 03:58:33;;;;;;;9.85;1.98;;;;;;;4.93;100.00;91338.88;2097046;28;20058;-82
2024/03/31 03:59:34;;;;;;;13.82;2.33;;;;;;;4.87;100.00;91337.91;2114864;27;20027;-82
2024/03/31 04:02:58;;;;;;;10.35;1.98;;;;;;;4.96;100.00;91322.13;2089277;28;20078;-83
2024/03/31 04:03:59;;;;;;;19.02;2.65;;;;;;;5.04;100.00;91323.41;2092618;28;20112;-82
2024/03/31 04:05:00;;;;;;;6.72;1.90;;;;;;;5.00;100.00;91328.84;2105967;28;20028;-82
2024/03/31 04:06:01;;;;;;;9.05;2.05;;;;;;;5.02;100.00;91318.53;2123340;27;20476;-84
2024/03/31 04:07:02;;;;;;;9.32;2.03;;;;;;;5.09;100.00;91319.47;2123710;27;20050;-82
2024/03/31 04:08:03;;;;;;;7.80;2.42;;;;;;;5.03;100.00;91317.38;2112202;28;20024;-81
2024/03/31 04:09:04;;;;;;;9.20;2.35;;;;;;;5.14;100.00;91311.78;2103562;28;20026;-82
2024/03/31 04:10:05;;;;;;;5.97;2.67;;;;;;;5.18;100.00;91309.75;2112915;27;20035;-83
2024/03/31 04:11:07;;;;;;;10.35;2.28;;;;;;;5.18;100.00;91306.34;2116493;27;20023;-82
2024/03/31 04:12:08;;;;;;;7.63;2.10;;;;;;;5.05;100.00;91299.16;2114721;27;20111;-84
2024/03/31 04:13:09;;;;;;;5.47;1.70;;;;;;;4.97;100.00;91302.44;2106995;27;20477;-84
2024/03/31 04:14:15;;;;;;;9.73;2.17;;;;;;;5.07;100.00;91298.00;2105787;28;20078;-81
2024/03/31 04:15:17;;;;;;;9.40;2.08;;;;;;;5.11;100.00;91304.66;2099958;28;20036;-81
2024/03/31 04:16:20;;;;;;;8.50;1.75;;;;;;;4.99;100.00;91303.50;2100886;28;20020;-82
2024/03/31 04:17:21;;;;;;;8.20;2.00;;;;;;;5.00;100.00;91312.94;2102684;28;20024;-81
2024/03/31 04:18:22;;;;;;;8.23;1.70;;;;;;;5.11;100.00;91314.53;2107290;28;20070;-84
2024/03/31 04:19:27;;;;;;;11.35;2.25;;;;;;;5.23;100.00;91311.13;2103964;28;20024;-83
2024/03/31 04:20:28;;;;;;;6.93;2.20;;;;;;;5.24;100.00;91320.53;2110473;28;20464;-83
2024/03/31 04:21:29;;;;;;;5.22;1.85;;;;;;;5.24;100.00;91313.34;2114548;28;20054;-82
2024/03/31 04:22:30;;;;;;;9.68;1.85;;;;;;;4.98;100.00;91323.19;2114774;28;20659;-83
2024/03/31 04:23:32;;;;;;;12.32;1.90;;;;;;;4.85;100.00;91322.47;2114789;28;20027;-82
2024/03/31 04:24:33;;;;;;;10.38;2.47;;;;;;;4.94;100.00;91319.91;2098702;28;20035;-81
2024/03/31 04:25:34;;;;;;;7.40;1.77;;;;;;;4.94;100.00;91325.22;2089471;28;20025;-85
2024/03/31 04:26:35;;;;;;;9.68;2.05;;;;;;;4.96;100.00;91322.13;2105843;28;20095;-85
2024/03/31 04:27:36;;;;;;;13.55;1.75;;;;;;;5.04;100.00;91308.25;2109912;28;20511;-83
2024/03/31 04:28:38;;;;;;;7.13;1.83;;;;;;;5.14;100.00;91305.72;2098013;28;20026;-83
2024/03/31 04:29:39;;;;;;;9.63;2.25;;;;;;;5.15;100.00;91307.22;2106005;28;20020;-81
2024/03/31 04:30:43;;;;;;;9.65;2.00;;;;;;;5.14;100.00;91311.78;2106277;28;20032;-81
2024/03/31 04:31:57;;;;;;;7.45;1.95;;;;;;;4.91;100.00;91304.88;2098306;28;20044;-82
2024/03/31 04:33:01;;;;;;;9.02;2.38;;;;;;;4.92;100.00;91306.38;2106191;28;20056;-82
2024/03/31 04:34:02;;;;;;;8.73;1.88;;;;;;;4.92;100.00;91303.72;2109311;27;20490;-82
2024/03/31 04:35:03;;;;;;;8.73;1.90;;;;;;;5.00;100.00;91297.06;2110971;28;20044;-82
2024/03/31 04:36:14;;;;;;;7.57;1.80;;;;;;;4.94;100.00;91298.00;2109312;28;20357;-81
2024/03/31 04:37:15;;;;;;;10.95;1.95;;;;;;;5.01;100.00;91297.78;2120548;27;20026;-81
2024/03/31 04:38:16;;;;;;;6.30;1.40;;;;;;;4.93;100.00;91299.16;2114502;27;20023;-86
2024/03/31 04:39:17;;;;;;;9.30;1.92;;;;;;;4.81;100.00;91311.22;2107079;27;20035;-84
2024/03/31 04:40:19;;;;;;;16.02;3.28;;;;;;;4.98;100.00;91301.28;2108679;28;20016;-80
2024/03/31 04:41:20;;;;;;;8.10;2.05;;;;;;;4.92;100.00;91301.09;2118240;27;20034;-82
2024/03/31 04:42:21;;;;;;;8.18;2.17;;;;;;;4.95;100.00;91302.13;2107274;28;20103;-83
2024/03/31 04:43:23;;;;;;;6.35;2.05;;;;;;;5.11;100.00;91306.56;2110323;28;20442;-82
2024/03/31 04:44:24;;;;;;;9.05;1.60;;;;;;;4.97;100.00;91303.19;2105675;28;20023;-84
2024/03/31 04:45:26;;;;;;;11.63;2.08;;;;;;;5.08;100.00;91307.41;2112764;27;20047;-84
2024/03/31 04:46:27;;;;;;;9.68;1.83;;;;;;;5.07;100.00;91308.59;2094343;28;20426;-83
2024/03/31 04:47:28;;;;;;;10.43;2.13;;;;;;;5.10;100.00;91299.81;2100621;28;20095;-83
2024/03/31 04:48:38;;;;;;;8.25;1.80;;;;;;;5.11;100.00;91296.72;2117192;27;20411;-84
2024/03/31 04:49:43;;;;;;;;;;;;;;;5.15;100.00;91301.91;2105961;28;20028;-81
2024/03/31 04:50:44;;;;;;;7.60;1.85;;;;;;;5.15;100.00;91300.00;2114355;27;20388;-84
2024/03/31 04:51:49;;;;;;;5.75;1.67;;;;;;;5.05;100.00;91295.78;2127741;27;20025;-85
2024/03/31 04:52:49;;;;;;;8.13;1.48;;;;;;;5.05;100.00;91296.53;2118600;27;20032;-81
2024/03/31 04:53:50;;;;;;;9.77;2.42;;;;;;;5.02;100.00;91297.38;2121572;27;20424;-82
2024/03/31 04:54:51;;;;;;;4.00;1.40;;;;;;;5.00;100.00;91297.06;2119741;27;20424;-81
2024/03/31 04:55:52;;;;;;;9.02;2.10;;;;;;;4.92;100.00;91297.69;2109945;28;20390;-84
2024/03/31 04:56:53;;;;;;;7.95;2.08;;;;;;;5.02;100.00;91297.38;2120957;27;20049;-83
2024/03/31 04:57:54;;;;;;;7.93;1.98;;;;;;;4.88;100.00;91295.16;2105836;28;20552;-84
2024/03/31 04:58:55;;;;;;;9.80;1.90;;;;;;;4.94;100.00;91304.03;2097618;28;20420;-83
2024/03/31 04:59:56;;;;;;;6.80;1.50;;;;;;;5.03;100.00;91300.75;2105687;28;20024;-81
2024/03/31 05:00:57;;;;;;;8.93;1.92;;;;;;;4.96;100.00;91300.94;2110442;27;20020;-82
2024/03/31 05:01:58;;;;;;;6.38;1.88;;;;;;;4.95;100.00;91297.56;2122926;27;20015;-80
2024/03/31 05:03:00;;;;;;;8.30;1.80;;;;;;;4.81;100.00;91298.00;2122691;27;20485;-81
2024/03/31 05:04:02;;;;;;;3.47;1.30;;;;;;;4.94;100.00;91293.44;2111153;28;20140;-80
2024/03/31 05:05:03;;;;;;;5.15;1.55;;;;;;;4.98;100.00;91298.63;2101291;28;20374;-81
2024/03/31 05:06:04;;;;;;;4.53;1.50;;;;;;;4.94;100.00;91287.41;2100685;28;20445;-81
2024/03/31 05:07:06;;;;;;;4.50;1.65;;;;;;;4.98;100.00;91283.50;2105689;28;20103;-81
2024/03/31 05:08:07;;;;;;;7.10;1.67;;;;;;;4.93;100.00;91278.00;2100198;28;20142;-82
2024/03/31 05:09:08;;;;;;;4.80;1.58;;;;;;;4.95;100.00;91281.69;2093767;28;20504;-84
2024/03/31 05:10:09;;;;;;;6.70;2.35;;;;;;;5.02;100.00;91273.53;2097006;28;20075;-83
2024/03/31 05:11:10;;;;;;;7.72;1.77;;;;;;;5.06;100.00;91270.78;2105843;28;20120;-80
2024/03/31 05:12:11;;;;;;;7.90;1.60;;;;;;;5.01;100.00;91266.75;2114163;27;20019;-83
2024/03/31 05:13:12;;;;;;;8.18;1.80;;;;;;;4.99;100.00;91269.06;2106125;28;20489;-81
2024/03/31 05:14:13;;;;;;;8.05;2.17;;;;;;;5.11;100.00;91264.19;2097383;28;20025;-83
2024/03/31 05:15:14;;;;;;;6.90;1.77;;;;;;;5.14;100.00;91266.75;2091514;28;20051;-82
2024/03/31 05:16:16;;;;;;;11.27;1.88;;;;;;;5.23;100.00;91260.81;2095405;28;20493;-82
2024/03/31 05:17:17;;;;;;;6.25;2.20;;;;;;;5.28;100.00;91254.97;2106243;28;20099;-81
2024/03/31 05:18:18;;;;;;;8.48;2.10;;;;;;;5.24;100.00;91247.13;2105689;28;20027;-82
2024/03/31 05:19:19;;;;;;;5.53;1.88;;;;;;;5.25;100.00;91247.84;2105575;28;20032;-83
2024/03/31 05:20:21;;;;;;;8.30;2.55;;;;;;;5.26;100.00;91247.41;2119209;27;20054;-82
2024/03/31 05:21:22;;;;;;;3.67;1.85;;;;;;;5.27;100.00;91245.53;2112599;28;20111;-83
2024/03/31 05:22:24;;;;;;;10.80;2.30;;;;;;;5.30;100.00;91242.75;2097448;28;20401;-81
2024/03/31 05:23:25;;;;;;;7.10;2.65;;;;;;;5.21;100.00;91241.94;2101517;28;20458;-83
2024/03/31 05:24:26;;;;;;;11.27;2.97;;;;;;;5.23;100.00;91239.59;2114187;28;20550;-80
2024/03/31 05:25:27;;;;;;;11.30;3.70;;;;;;;5.24;100.00;91239.19;2113926;28;20145;-81